Etusivu
METAR-TAF:

METAR-TAF

Lentoasemat :

Tegelin lentoasema

Berlin, Saksa

Leveyspiiri: 52-34N, Pituuspiiri: 013-19E, korkeus merenpinnasta: 37 m

Tämänhetkinen sää

Tämä raportti tehtiin 20 minuuttia sitten, kello 06.50 UTC
Tuuli 11 kn lännestä
Lämpötila 6°C
Kosteus 75%
Ilmanpaine 1012 hPa
Näkyvyys 10 km tai enemmän
ei pilviä alle 1500 m:ssä eikä cumulonimbus-pilviä

METAR: EDDT 020650Z 26011KT CAVOK 06/02 Q1012 NOSIG

Aika: 09:10 (07:10 UTC)

Sääennuste

Tämä raportti tehtiin 2 tuntia ja 10 minuuttia sitten, kello 05.00 UTC
Ennuste voimassa 02. päivästä klo 06 UTC - 03. päivään klo 06 UTC
Tuuli 8 kn lännestä/lounaasta
Näkyvyys 10 km tai enemmän
ei pilviä alle 1500 m:ssä eikä cumulonimbus-pilviä
Tulossa
02. päivästä klo 07 UTC - 02. päivään klo 09 UTC
Tuuli 13 kn lännestä/lounaasta

TAF: EDDT 020500Z 0206/0306 24008KT CAVOK BECMG 0207/0209 24013KT

Säähavainnot ja -ennusteet yli 4000 lentoasemalta (METAR- ja TAF-raportit).

Käytössä olevat sääasemat on merkitty karttaan keltaisilla ja punaisilla pisteillä.

Aseta hiiri pisteen päälle nähdäksesi sääaseman nimen.

Klikkaa sitten nähdäksesi säähavainnot ja -ennusteet.

Kartan vaihtaminen: klikkaa mustalla rastilla varustettuja vihreitä pisteitä, niin voit zoomata sisään; viivalla varustettua vihreää pistettä, niin voit zoomata ulos tai vihreitä nuolia, niin pääset viereisille kartoille.


METAR-TAF: